createdAt,value
2022-11-19T00:02:05.811Z,1.00
2022-11-19T00:04:33.968Z,1.00
2022-11-19T00:07:02.382Z,1.00
2022-11-19T00:09:31.935Z,1.00
2022-11-19T00:12:17.477Z,1.00
2022-11-19T00:14:45.637Z,1.00
2022-11-19T00:17:14.013Z,1.00
2022-11-19T00:19:42.193Z,1.00
2022-11-19T00:22:10.320Z,1.00
2022-11-19T00:24:39.987Z,1.00
2022-11-19T00:27:08.255Z,1.00
2022-11-19T00:29:36.399Z,1.00
2022-11-19T00:32:04.830Z,1.00
2022-11-19T00:34:32.965Z,1.00
2022-11-19T00:37:01.332Z,1.00
2022-11-19T00:39:29.499Z,1.00
2022-11-19T00:41:59.065Z,1.00
2022-11-19T00:44:28.631Z,1.00
2022-11-19T00:46:58.476Z,1.00
2022-11-19T00:49:26.619Z,1.00
2022-11-19T00:51:55.388Z,1.00
2022-11-19T00:54:23.550Z,1.00
2022-11-19T00:56:51.675Z,1.00
2022-11-19T00:59:21.485Z,1.00
2022-11-19T01:01:49.873Z,1.00
2022-11-19T01:04:18.325Z,1.00
2022-11-19T01:06:46.676Z,1.00
2022-11-19T01:09:14.845Z,1.00
2022-11-19T01:11:43.029Z,1.00
2022-11-19T01:14:11.407Z,1.00
2022-11-19T01:16:42.608Z,1.00
2022-11-19T01:19:16.118Z,1.00
2022-11-19T01:21:44.485Z,1.00
2022-11-19T01:24:12.793Z,1.00
2022-11-19T01:26:45.559Z,1.00
2022-11-19T01:29:14.782Z,1.00
2022-11-19T01:31:44.321Z,1.00
2022-11-19T01:34:12.791Z,1.00
2022-11-19T01:36:40.961Z,1.00
2022-11-19T01:39:09.107Z,1.00
2022-11-19T01:41:37.248Z,1.00
2022-11-19T01:44:08.185Z,1.00
2022-11-19T01:46:38.626Z,1.00
2022-11-19T01:49:15.852Z,1.00
2022-11-19T01:51:52.934Z,1.00
2022-11-19T01:54:26.829Z,1.00
2022-11-19T01:56:57.519Z,1.00
2022-11-19T01:59:26.939Z,1.00
2022-11-19T02:01:55.297Z,1.00
2022-11-19T02:04:26.726Z,1.00
2022-11-19T02:06:56.980Z,1.00
2022-11-19T02:09:28.802Z,1.00
2022-11-19T02:12:14.908Z,1.00
2022-11-19T02:15:04.594Z,1.00
2022-11-19T02:17:56.025Z,1.00
2022-11-19T02:20:53.808Z,1.00
2022-11-19T02:24:11.688Z,1.00
2022-11-19T02:27:19.969Z,1.00
2022-11-19T02:30:11.743Z,1.00
2022-11-19T02:32:59.648Z,1.00
2022-11-19T02:35:45.560Z,1.00
2022-11-19T02:38:28.047Z,1.00
2022-11-19T02:41:23.445Z,1.00
2022-11-19T02:44:21.864Z,1.00
2022-11-19T02:46:54.805Z,1.00
2022-11-19T02:49:30.018Z,1.00
2022-11-19T02:51:59.146Z,1.00
2022-11-19T02:54:28.352Z,1.00
2022-11-19T02:56:59.849Z,1.00
2022-11-19T03:00:17.931Z,1.00
2022-11-19T03:03:28.010Z,1.00
2022-11-19T03:06:03.157Z,1.00
2022-11-19T03:08:31.541Z,1.00
2022-11-19T03:11:17.155Z,1.00
2022-11-19T03:14:13.546Z,1.00
2022-11-19T03:16:49.424Z,1.00
2022-11-19T03:19:41.332Z,1.00
2022-11-19T03:22:17.546Z,1.00
2022-11-19T03:24:51.548Z,1.00
2022-11-19T03:27:31.038Z,1.00
2022-11-19T03:30:03.294Z,1.00
2022-11-19T03:32:39.125Z,1.00
2022-11-19T03:35:16.868Z,1.00
2022-11-19T03:37:50.600Z,1.00
2022-11-19T03:40:21.944Z,1.00
2022-11-19T03:42:55.578Z,1.00
2022-11-19T03:45:29.531Z,1.00
2022-11-19T03:48:02.796Z,1.00
2022-11-19T03:50:43.982Z,1.00
2022-11-19T03:53:12.548Z,1.00
2022-11-19T03:55:49.101Z,1.00
2022-11-19T03:58:17.359Z,1.00
2022-11-19T04:00:45.475Z,1.00
2022-11-19T04:03:13.876Z,1.00
2022-11-19T04:05:43.446Z,1.00
2022-11-19T04:08:11.682Z,1.00
2022-11-19T04:10:39.948Z,1.00
2022-11-19T04:13:08.129Z,1.00
2022-11-19T04:15:36.535Z,1.00
2022-11-19T04:18:05.040Z,1.00
2022-11-19T04:20:33.254Z,1.00
2022-11-19T04:23:02.764Z,1.00
2022-11-19T04:25:30.962Z,1.00
2022-11-19T04:27:59.113Z,1.00
2022-11-19T04:30:27.298Z,1.00
2022-11-19T04:32:55.467Z,1.00
2022-11-19T04:35:23.686Z,1.00
2022-11-19T04:37:51.828Z,1.00
2022-11-19T04:40:21.434Z,1.00
2022-11-19T04:42:49.595Z,1.00
2022-11-19T04:45:17.964Z,1.00
2022-11-19T04:47:46.100Z,1.00
2022-11-19T04:50:14.591Z,1.00
2022-11-19T04:52:42.695Z,1.00
2022-11-19T04:55:11.810Z,1.00
2022-11-19T04:57:41.510Z,1.00
2022-11-19T05:00:11.407Z,1.00
2022-11-19T05:02:39.644Z,1.00
2022-11-19T05:05:09.484Z,1.00
2022-11-19T05:07:37.624Z,1.00
2022-11-19T05:10:06.916Z,1.00
2022-11-19T05:12:35.149Z,1.00
2022-11-19T05:15:05.464Z,1.00
2022-11-19T05:17:33.682Z,1.20
2022-11-19T05:20:02.097Z,13.30
2022-11-19T05:22:30.214Z,1.00
2022-11-19T05:24:58.393Z,1.00
2022-11-19T05:27:26.596Z,1.00
2022-11-19T05:29:54.735Z,1.00
2022-11-19T05:32:24.487Z,1.00
2022-11-19T05:34:52.681Z,1.00
2022-11-19T05:37:20.804Z,1.00
2022-11-19T05:39:48.942Z,1.00
2022-11-19T05:42:17.087Z,1.00
2022-11-19T05:44:45.385Z,1.00
2022-11-19T05:47:13.598Z,1.00
2022-11-19T05:49:43.344Z,1.00
2022-11-19T05:52:12.668Z,18.40
2022-11-19T05:54:40.833Z,55.50
2022-11-19T05:57:08.990Z,65.80
2022-11-19T05:59:43.552Z,53.50
2022-11-19T06:02:12.293Z,38.30
2022-11-19T06:04:42.397Z,40.20
2022-11-19T06:07:10.599Z,29.30
2022-11-19T06:09:38.894Z,15.40
2022-11-19T06:12:07.790Z,1.10
2022-11-19T06:14:36.144Z,1.00
2022-11-19T06:17:04.833Z,1.00
2022-11-19T06:19:33.415Z,1.00
2022-11-19T06:22:02.989Z,1.00
2022-11-19T06:24:31.101Z,1.00
2022-11-19T06:26:59.252Z,1.00
2022-11-19T06:29:27.411Z,1.00
2022-11-19T06:31:55.677Z,1.00
2022-11-19T06:34:23.860Z,1.00
2022-11-19T06:36:52.010Z,1.00
2022-11-19T06:39:21.917Z,1.00
2022-11-19T06:41:50.233Z,1.00
2022-11-19T06:44:18.601Z,1.00
2022-11-19T06:46:46.847Z,1.00
2022-11-19T06:49:19.827Z,1.00
2022-11-19T06:51:48.636Z,1.00
2022-11-19T06:54:16.758Z,1.00
2022-11-19T06:56:46.244Z,1.00
2022-11-19T06:59:14.570Z,1.00
2022-11-19T07:01:42.829Z,1.00
2022-11-19T07:04:11.881Z,1.00
2022-11-19T07:06:40.052Z,1.00
2022-11-19T07:09:08.273Z,1.00
2022-11-19T07:11:36.477Z,1.00
2022-11-19T07:14:06.389Z,1.00
2022-11-19T07:16:37.375Z,1.00
2022-11-19T07:19:08.731Z,1.00
2022-11-19T07:21:37.680Z,1.00
2022-11-19T07:24:09.165Z,1.00
2022-11-19T07:26:38.803Z,1.00
2022-11-19T07:29:11.437Z,1.00
2022-11-19T07:31:39.755Z,1.00
2022-11-19T07:34:08.778Z,1.00
2022-11-19T07:36:37.261Z,1.00
2022-11-19T07:39:05.861Z,1.00
2022-11-19T07:41:51.731Z,1.00
2022-11-19T07:44:21.270Z,1.00
2022-11-19T07:46:49.549Z,1.00
2022-11-19T07:49:18.289Z,1.00
2022-11-19T07:51:46.745Z,1.00
2022-11-19T07:54:15.864Z,1.00
2022-11-19T07:56:44.451Z,1.00
2022-11-19T07:59:13.391Z,1.00
2022-11-19T08:01:43.149Z,1.00
2022-11-19T08:04:11.574Z,99.90
2022-11-19T08:06:39.822Z,99.90
2022-11-19T08:09:08.062Z,99.90
2022-11-19T08:11:36.234Z,1.00
2022-11-19T08:14:04.430Z,1.00
2022-11-19T08:16:52.274Z,99.90
2022-11-19T08:19:22.273Z,99.90
2022-11-19T08:21:51.604Z,99.90
2022-11-19T08:24:21.767Z,1.00
2022-11-19T08:26:50.965Z,1.00
2022-11-19T08:29:23.683Z,1.00
2022-11-19T08:31:52.858Z,1.00
2022-11-19T08:34:23.103Z,1.00
2022-11-19T08:36:51.459Z,1.00
2022-11-19T08:39:19.632Z,1.00
2022-11-19T08:42:05.202Z,99.20
2022-11-19T08:44:33.417Z,1.00
2022-11-19T08:47:01.605Z,99.90
2022-11-19T08:49:31.121Z,1.00
2022-11-19T08:51:59.664Z,98.20
2022-11-19T08:54:27.889Z,99.90
2022-11-19T08:56:56.074Z,31.90
2022-11-19T08:59:24.255Z,1.00
2022-11-19T09:01:52.570Z,1.00
2022-11-19T09:04:21.118Z,1.00
2022-11-19T09:06:50.863Z,1.00
2022-11-19T09:09:19.853Z,99.90
2022-11-19T09:11:48.046Z,1.00
2022-11-19T09:14:16.428Z,1.00
2022-11-19T09:16:44.716Z,99.90
2022-11-19T09:19:12.876Z,1.00
2022-11-19T09:21:41.020Z,99.90
2022-11-19T09:24:10.629Z,1.00
2022-11-19T09:26:38.869Z,99.90
2022-11-19T09:29:07.021Z,99.90
2022-11-19T09:31:35.265Z,99.90
2022-11-19T09:34:03.863Z,99.90
2022-11-19T09:36:32.026Z,99.90
2022-11-19T09:39:02.126Z,99.90
2022-11-19T09:41:53.256Z,99.90
2022-11-19T09:44:47.944Z,99.90
2022-11-19T09:47:31.912Z,99.90
2022-11-19T09:50:13.300Z,1.00
2022-11-19T09:52:48.573Z,99.90
2022-11-19T09:55:24.820Z,66.20
2022-11-19T09:57:59.266Z,1.00
2022-11-19T10:00:30.716Z,1.00
2022-11-19T10:03:02.157Z,1.00
2022-11-19T10:05:43.444Z,99.90
2022-11-19T10:08:27.649Z,99.90
2022-11-19T10:11:15.616Z,99.90
2022-11-19T10:14:03.032Z,99.90
2022-11-19T10:16:50.966Z,99.90
2022-11-19T10:19:39.400Z,99.90
2022-11-19T10:22:19.424Z,99.90
2022-11-19T10:25:01.086Z,1.00
2022-11-19T10:27:38.674Z,12.80
2022-11-19T10:30:17.956Z,99.90
2022-11-19T10:32:57.350Z,99.90
2022-11-19T10:35:33.157Z,99.90
2022-11-19T10:38:06.316Z,99.90
2022-11-19T10:40:42.694Z,1.00
2022-11-19T10:43:23.636Z,1.00
2022-11-19T10:45:53.439Z,99.90
2022-11-19T10:48:25.401Z,1.00
2022-11-19T10:50:55.841Z,1.00
2022-11-19T10:53:31.373Z,1.00
2022-11-19T10:56:05.608Z,1.00
2022-11-19T10:58:41.695Z,1.00
2022-11-19T11:01:21.796Z,1.00
2022-11-19T11:04:06.948Z,1.00
2022-11-19T11:06:53.338Z,99.90
2022-11-19T11:09:33.728Z,93.50
2022-11-19T11:12:29.790Z,99.90
2022-11-19T11:15:02.121Z,1.00
2022-11-19T11:17:35.113Z,79.80
2022-11-19T11:20:08.702Z,89.60
2022-11-19T11:22:37.927Z,23.30
2022-11-19T11:25:21.659Z,1.00
2022-11-19T11:28:08.105Z,1.00
2022-11-19T11:30:36.807Z,1.00
2022-11-19T11:36:02.901Z,99.90
2022-11-19T11:38:32.037Z,1.00
2022-11-19T11:44:02.736Z,99.90
2022-11-19T11:46:43.196Z,1.00
2022-11-19T11:49:26.220Z,1.00
2022-11-19T11:52:16.338Z,1.00
2022-11-19T11:55:03.273Z,1.00
2022-11-19T11:57:34.207Z,1.00
2022-11-19T12:00:24.770Z,1.00
2022-11-19T12:03:02.927Z,1.00
2022-11-19T12:05:45.816Z,1.00
2022-11-19T12:08:34.301Z,1.00
2022-11-19T12:11:12.845Z,1.00
2022-11-19T12:13:56.180Z,1.00
2022-11-19T12:16:43.568Z,99.90
2022-11-19T12:19:34.676Z,99.90
2022-11-19T12:22:16.574Z,99.90
2022-11-19T12:25:30.482Z,99.90
2022-11-19T12:28:35.683Z,99.90
2022-11-19T12:31:20.537Z,99.90
2022-11-19T12:34:17.102Z,99.90
2022-11-19T12:36:57.965Z,99.90
2022-11-19T12:39:53.192Z,99.90
2022-11-19T12:42:53.606Z,99.90
2022-11-19T12:45:36.709Z,99.90
2022-11-19T12:48:37.679Z,99.90
2022-11-19T12:51:17.908Z,99.90
2022-11-19T12:54:16.360Z,99.90
2022-11-19T12:57:03.241Z,99.90
2022-11-19T12:59:52.728Z,99.90
2022-11-19T13:02:28.380Z,99.90
2022-11-19T13:05:06.993Z,99.90
2022-11-19T13:07:45.188Z,99.90
2022-11-19T13:10:19.933Z,99.90
2022-11-19T13:12:53.233Z,99.90
2022-11-19T13:15:29.840Z,99.90
2022-11-19T13:18:03.264Z,99.90
2022-11-19T13:20:45.541Z,99.90
2022-11-19T13:23:22.090Z,99.90
2022-11-19T13:25:59.740Z,99.90
2022-11-19T13:28:37.282Z,1.00
2022-11-19T13:31:19.011Z,1.00
2022-11-19T13:33:56.370Z,1.00
2022-11-19T13:36:34.287Z,1.00
2022-11-19T13:39:15.891Z,1.00
2022-11-19T13:42:03.909Z,1.00
2022-11-19T13:44:42.095Z,99.90
2022-11-19T13:47:23.663Z,99.90
2022-11-19T13:49:59.254Z,1.00
2022-11-19T13:52:32.960Z,99.90
2022-11-19T13:55:02.624Z,1.00
2022-11-19T13:57:44.187Z,1.00
2022-11-19T14:00:26.447Z,99.90
2022-11-19T14:03:39.219Z,1.00
2022-11-19T14:06:33.684Z,1.00
2022-11-19T14:09:18.894Z,99.90
2022-11-19T14:12:17.326Z,1.00
2022-11-19T14:15:38.306Z,1.00
2022-11-19T14:18:40.069Z,1.00
2022-11-19T14:22:15.157Z,1.00
2022-11-19T14:25:16.839Z,1.00
2022-11-19T14:27:45.762Z,1.00
2022-11-19T14:30:20.713Z,1.00
2022-11-19T14:32:52.653Z,1.00
2022-11-19T14:35:40.874Z,1.00
2022-11-19T14:38:44.505Z,1.00
2022-11-19T14:41:32.599Z,1.00
2022-11-19T14:44:31.862Z,1.00
2022-11-19T14:47:37.217Z,1.00
2022-11-19T14:50:09.607Z,1.00
2022-11-19T14:52:52.771Z,1.00
2022-11-19T14:55:24.812Z,99.90
2022-11-19T14:58:01.881Z,1.00
2022-11-19T15:00:34.609Z,99.90
2022-11-19T15:03:07.369Z,1.00
2022-11-19T15:05:41.245Z,21.80
2022-11-19T15:08:47.905Z,1.00
2022-11-19T15:11:17.022Z,1.00
2022-11-19T15:13:46.885Z,48.10
2022-11-19T15:16:19.973Z,99.90
2022-11-19T15:19:31.023Z,1.00
2022-11-19T15:22:28.902Z,1.00
2022-11-19T15:25:31.018Z,1.00
2022-11-19T15:28:28.806Z,99.90
2022-11-19T15:31:29.986Z,1.00
2022-11-19T15:34:56.149Z,1.00
2022-11-19T15:37:40.359Z,99.90
2022-11-19T15:40:16.915Z,1.00
2022-11-19T15:42:57.790Z,99.90
2022-11-19T15:45:28.334Z,1.00
2022-11-19T15:48:11.351Z,1.00
2022-11-19T15:50:43.265Z,1.00
2022-11-19T15:53:18.783Z,1.00
2022-11-19T15:55:57.409Z,1.00
2022-11-19T15:58:30.865Z,99.90
2022-11-19T16:00:59.275Z,1.00
2022-11-19T16:03:27.645Z,1.00
2022-11-19T16:06:10.961Z,1.00
2022-11-19T16:08:39.656Z,1.00
2022-11-19T16:11:26.545Z,1.00
2022-11-19T16:14:13.691Z,1.00
2022-11-19T16:16:59.562Z,1.00
2022-11-19T16:19:27.830Z,1.00
2022-11-19T16:22:01.895Z,99.90
2022-11-19T16:24:49.547Z,99.90
2022-11-19T16:27:24.885Z,99.90
2022-11-19T16:29:53.602Z,99.90
2022-11-19T16:32:25.689Z,15.40
2022-11-19T16:34:53.931Z,1.00
2022-11-19T16:37:23.545Z,1.00
2022-11-19T16:39:54.080Z,90.30
2022-11-19T16:42:27.143Z,99.90
2022-11-19T16:44:57.969Z,1.00
2022-11-19T16:47:34.244Z,99.90
2022-11-19T16:50:24.976Z,99.90
2022-11-19T16:52:53.255Z,1.00
2022-11-19T16:55:52.518Z,1.00
2022-11-19T16:58:28.881Z,99.90
2022-11-19T17:00:59.615Z,1.00
2022-11-19T17:03:36.759Z,99.90
2022-11-19T17:06:07.405Z,1.00
2022-11-19T17:08:38.665Z,1.00
2022-11-19T17:11:39.608Z,1.00
2022-11-19T17:14:21.061Z,1.00
2022-11-19T17:16:51.562Z,1.00
2022-11-19T17:19:28.116Z,1.00
2022-11-19T17:22:02.851Z,1.00
2022-11-19T17:24:35.512Z,1.00
2022-11-19T17:27:03.796Z,1.00
2022-11-19T17:29:33.843Z,1.00
2022-11-19T17:32:04.930Z,1.00
2022-11-19T17:34:45.325Z,1.00
2022-11-19T17:37:13.648Z,15.60
2022-11-19T17:39:41.871Z,21.70
2022-11-19T17:42:28.608Z,24.20
2022-11-19T17:44:58.281Z,13.30
2022-11-19T17:47:26.418Z,13.70
2022-11-19T17:49:54.921Z,28.90
2022-11-19T17:52:26.003Z,14.80
2022-11-19T17:54:57.961Z,26.10
2022-11-19T17:57:26.335Z,27.50
2022-11-19T17:59:54.825Z,38.20
2022-11-19T18:02:24.478Z,45.40
2022-11-19T18:04:53.682Z,49.60
2022-11-19T18:07:22.012Z,56.40
2022-11-19T18:09:50.261Z,71.40
2022-11-19T18:12:20.643Z,82.30
2022-11-19T18:14:49.092Z,88.80
2022-11-19T18:17:17.559Z,82.20
2022-11-19T18:19:47.227Z,41.80
2022-11-19T18:22:19.836Z,34.80
2022-11-19T18:24:49.123Z,36.60
2022-11-19T18:27:18.102Z,43.50
2022-11-19T18:29:46.410Z,30.80
2022-11-19T18:32:16.964Z,34.00
2022-11-19T18:34:47.485Z,33.80
2022-11-19T18:37:15.639Z,42.20
2022-11-19T18:39:43.868Z,42.90
2022-11-19T18:42:13.068Z,48.30
2022-11-19T18:44:43.244Z,63.20
2022-11-19T18:47:13.663Z,65.10
2022-11-19T18:49:43.070Z,37.70
2022-11-19T18:52:15.962Z,33.50
2022-11-19T18:54:44.632Z,20.30
2022-11-19T18:57:13.857Z,14.20
2022-11-19T18:59:42.417Z,9.60
2022-11-19T19:02:12.076Z,13.40
2022-11-19T19:04:40.235Z,2.50
2022-11-19T19:07:08.435Z,1.00
2022-11-19T19:09:38.551Z,1.00
2022-11-19T19:12:20.150Z,1.00
2022-11-19T19:14:51.439Z,1.00
2022-11-19T19:17:20.136Z,1.00
2022-11-19T19:19:49.021Z,1.00
2022-11-19T19:22:18.267Z,1.00
2022-11-19T19:24:48.058Z,1.00
2022-11-19T19:27:16.307Z,1.00
2022-11-19T19:29:44.714Z,1.00
2022-11-19T19:32:13.093Z,1.00
2022-11-19T19:34:41.236Z,1.00
2022-11-19T19:37:09.659Z,1.00
2022-11-19T19:39:37.821Z,1.00
2022-11-19T19:42:07.797Z,1.00
2022-11-19T19:44:36.914Z,1.00
2022-11-19T19:47:06.416Z,1.00
2022-11-19T19:49:38.626Z,1.00
2022-11-19T19:52:07.222Z,1.00
2022-11-19T19:54:35.617Z,1.00
2022-11-19T19:57:03.809Z,1.00
2022-11-19T19:59:33.751Z,1.00
2022-11-19T20:02:02.151Z,1.00
2022-11-19T20:04:30.354Z,1.00
2022-11-19T20:06:58.620Z,1.00
2022-11-19T20:09:27.217Z,1.00
2022-11-19T20:11:55.652Z,1.00
2022-11-19T20:14:23.799Z,1.00
2022-11-19T20:16:53.286Z,1.00
2022-11-19T20:19:21.642Z,1.00
2022-11-19T20:21:52.163Z,1.00
2022-11-19T20:24:21.935Z,1.00
2022-11-19T20:26:50.085Z,1.00
2022-11-19T20:29:20.235Z,1.00
2022-11-19T20:31:50.165Z,1.00
2022-11-19T20:34:19.972Z,1.00
2022-11-19T20:36:48.786Z,1.00
2022-11-19T20:39:17.014Z,1.00
2022-11-19T20:42:02.832Z,1.00
2022-11-19T20:44:31.006Z,1.00
2022-11-19T20:47:02.026Z,1.00
2022-11-19T20:49:34.414Z,1.00
2022-11-19T20:52:03.508Z,1.00
2022-11-19T20:54:32.333Z,1.00
2022-11-19T20:57:02.422Z,1.00
2022-11-19T20:59:31.181Z,1.00
2022-11-19T21:01:59.597Z,19.50
2022-11-19T21:04:31.292Z,37.80
2022-11-19T21:07:00.805Z,70.50
2022-11-19T21:09:28.997Z,96.60
2022-11-19T21:11:57.150Z,99.90
2022-11-19T21:14:25.305Z,99.90
2022-11-19T21:16:53.565Z,99.90
2022-11-19T21:19:21.913Z,99.90
2022-11-19T21:21:50.214Z,99.90
2022-11-19T21:24:19.790Z,99.90
2022-11-19T21:26:47.974Z,99.90
2022-11-19T21:29:16.241Z,99.90
2022-11-19T21:31:46.664Z,99.90
2022-11-19T21:34:17.903Z,99.90
2022-11-19T21:36:48.079Z,99.90
2022-11-19T21:39:20.088Z,99.90
2022-11-19T21:41:48.648Z,99.90
2022-11-19T21:44:21.321Z,99.90
2022-11-19T21:46:50.238Z,99.90
2022-11-19T21:49:19.164Z,99.90
2022-11-19T21:51:47.856Z,99.90
2022-11-19T21:54:16.033Z,99.90
2022-11-19T21:56:45.747Z,99.90
2022-11-19T21:59:14.116Z,99.90
2022-11-19T22:01:42.294Z,99.90
2022-11-19T22:04:13.534Z,99.90
2022-11-19T22:06:42.076Z,99.90
2022-11-19T22:09:10.269Z,99.90
2022-11-19T22:11:38.480Z,99.90
2022-11-19T22:14:10.616Z,99.90
2022-11-19T22:16:41.009Z,99.90
2022-11-19T22:19:09.373Z,99.90
2022-11-19T22:21:37.612Z,99.90
2022-11-19T22:24:06.797Z,99.90
2022-11-19T22:26:34.979Z,99.90
2022-11-19T22:29:03.219Z,99.90
2022-11-19T22:31:32.834Z,99.90
2022-11-19T22:34:00.995Z,99.90
2022-11-19T22:36:33.206Z,99.90
2022-11-19T22:39:01.622Z,99.90
2022-11-19T22:41:29.951Z,99.90
2022-11-19T22:43:59.300Z,99.90
2022-11-19T22:46:27.510Z,99.90
2022-11-19T22:48:57.069Z,99.90
2022-11-19T22:51:26.987Z,99.90
2022-11-19T22:53:56.283Z,99.90
2022-11-19T22:56:27.306Z,99.90
2022-11-19T22:58:56.476Z,99.90
2022-11-19T23:01:27.739Z,99.90
2022-11-19T23:03:59.750Z,99.90
2022-11-19T23:06:28.315Z,99.90
2022-11-19T23:08:56.930Z,99.90
2022-11-19T23:11:39.600Z,99.90
2022-11-19T23:14:10.009Z,99.90
2022-11-19T23:16:39.255Z,99.90
2022-11-19T23:19:09.636Z,99.90
2022-11-19T23:21:39.321Z,99.90
2022-11-19T23:24:09.484Z,99.90
2022-11-19T23:26:38.525Z,99.90
2022-11-19T23:29:07.608Z,99.90
2022-11-19T23:31:38.762Z,99.90
2022-11-19T23:34:08.878Z,99.90
2022-11-19T23:36:40.026Z,99.90
2022-11-19T23:39:14.604Z,99.90
2022-11-19T23:41:42.793Z,99.90
2022-11-19T23:44:11.332Z,99.90
2022-11-19T23:46:40.025Z,99.90
2022-11-19T23:49:11.168Z,99.90
2022-11-19T23:51:40.143Z,99.90
2022-11-19T23:54:08.418Z,99.90
2022-11-19T23:56:37.116Z,99.90
2022-11-19T23:59:07.376Z,99.90
